Time;durP1;ratioP1;P1;durP2;ratioP2;P2;SDS_P1;SDS_P2;PMS_P1;PMS_P2;Temp;Humidity;BMP_temperature;BMP_pressure;BME280_temperature;BME280_humidity;BME280_pressure;Samples;Min_cycle;Max_cycle;Signal;HPM_P1;HPM_P2
2022/07/15 00:00:19;;;;;;;5.45;0.63;;;14.40;99.90;;;;;;5092749;27;20043;-89
2022/07/15 00:02:45;;;;;;;6.28;0.90;;;14.20;99.90;;;;;;5078796;27;20074;-88
2022/07/15 00:05:10;;;;;;;8.77;1.08;;;15.50;99.90;;;;;;5110446;27;20077;-88
2022/07/15 00:07:36;;;;;;;3.80;0.65;;;14.30;99.90;;;;;;5078391;27;20051;-90
2022/07/15 00:10:15;;;;;;;8.25;1.00;;;14.30;99.90;;;;;;5094690;27;20110;-88
2022/07/15 00:12:53;;;;;;;6.18;0.82;;;14.30;99.90;;;;;;5095525;27;20046;-89
2022/07/15 00:15:26;;;;;;;4.88;1.00;;;14.30;99.90;;;;;;5101678;27;20047;-87
2022/07/15 00:17:53;;;;;;;5.82;1.00;;;14.40;99.90;;;;;;5094058;27;20501;-87
2022/07/15 00:20:20;;;;;;;7.28;0.95;;;14.30;99.90;;;;;;5093204;27;20051;-88
2022/07/15 00:22:46;;;;;;;5.20;0.63;;;14.40;99.90;;;;;;5092326;27;20057;-88
2022/07/15 00:25:14;;;;;;;7.72;1.35;;;14.40;99.90;;;;;;5075582;27;20039;-87
2022/07/15 00:28:02;;;;;;;5.45;1.00;;;14.70;99.90;;;;;;5075652;27;20039;-88
2022/07/15 00:30:34;;;;;;;8.02;1.58;;;14.30;99.90;;;;;;5091353;27;20058;-88
2022/07/15 00:33:00;;;;;;;5.45;0.82;;;14.90;99.90;;;;;;5092699;27;20043;-88
2022/07/15 00:35:27;;;;;;;6.15;0.95;;;14.30;99.90;;;;;;5090908;27;20035;-87
2022/07/15 00:37:53;;;;;;;2.22;0.55;;;14.20;99.90;;;;;;5091622;27;20054;-87
2022/07/15 00:40:19;;;;;;;4.97;0.90;;;14.20;99.90;;;;;;5091739;27;20046;-87
2022/07/15 00:42:45;;;;;;;6.13;1.60;;;14.20;99.90;;;;;;5090655;27;20035;-87
2022/07/15 00:45:18;;;;;;;5.85;0.85;;;14.80;99.90;;;;;;5075193;27;20043;-87
2022/07/15 00:47:56;;;;;;;5.13;0.77;;;14.10;99.90;;;;;;5091516;27;20493;-87
2022/07/15 00:50:26;;;;;;;9.05;0.80;;;14.00;99.90;;;;;;5091744;27;20122;-87
2022/07/15 00:53:07;;;;;;;6.13;0.90;;;14.00;99.90;;;;;;5090790;27;20046;-87
2022/07/15 00:55:39;;;;;;;6.20;0.88;;;13.90;99.90;;;;;;5090487;27;20042;-87
2022/07/15 00:58:06;;;;;;;3.47;0.70;;;13.90;99.90;;;;;;5092001;27;20382;-87
2022/07/15 01:00:33;;;;;;;7.43;0.65;;;13.80;99.90;;;;;;5106979;28;20265;-87
2022/07/15 01:03:00;;;;;;;5.80;1.00;;;14.20;99.90;;;;;;5074384;27;20099;-87
2022/07/15 01:05:27;;;;;;;4.20;0.60;;;14.50;99.90;;;;;;5107008;27;20061;-88
2022/07/15 01:07:53;;;;;;;5.95;0.90;;;13.70;99.90;;;;;;5091296;27;20044;-88
2022/07/15 01:10:21;;;;;;;6.43;1.15;;;14.10;99.90;;;;;;5091261;27;20042;-88
2022/07/15 01:12:48;;;;;;;6.10;0.80;;;13.60;99.90;;;;;;5073618;27;20130;-88
2022/07/15 01:15:15;;;;;;;6.28;0.75;;;13.60;99.90;;;;;;5091509;27;20039;-88
2022/07/15 01:17:43;;;;;;;6.40;0.82;;;13.90;99.90;;;;;;5073682;27;20099;-88
2022/07/15 01:20:12;;;;;;;5.82;0.90;;;14.30;99.90;;;;;;5091568;27;20043;-89
2022/07/15 01:22:37;;;;;;;5.00;0.95;;;13.70;99.90;;;;;;5090049;27;20043;-89
2022/07/15 01:25:04;;;;;;;5.35;0.88;;;13.70;99.90;;;;;;5074197;27;20035;-89
2022/07/15 01:27:32;;;;;;;3.20;0.47;;;13.70;99.90;;;;;;5091655;28;20513;-89
2022/07/15 01:30:01;;;;;;;5.53;0.47;;;13.70;99.90;;;;;;5073233;27;20048;-90
2022/07/15 01:32:27;;;;;;;3.63;0.63;;;13.70;99.90;;;;;;5058043;27;20039;-89
2022/07/15 01:34:53;;;;;;;5.75;1.55;;;13.70;99.90;;;;;;5073137;27;20035;-89
2022/07/15 01:37:19;;;;;;;4.50;0.68;;;14.40;99.90;;;;;;5057695;28;20050;-89
2022/07/15 01:39:44;;;;;;;4.53;0.50;;;13.60;99.90;;;;;;5056532;28;20039;-89
2022/07/15 01:42:10;;;;;;;6.38;0.73;;;13.60;99.90;;;;;;5057025;28;20057;-89
2022/07/15 01:44:36;;;;;;;4.55;0.55;;;13.80;99.90;;;;;;5073612;28;20047;-89
2022/07/15 01:47:05;;;;;;;7.65;0.60;;;14.40;99.90;;;;;;5073325;28;20048;-89
2022/07/15 01:49:31;;;;;;;2.20;0.63;;;13.70;99.90;;;;;;5057441;28;20055;-88
2022/07/15 01:52:00;;;;;;;3.30;0.50;;;13.40;99.90;;;;;;5090370;28;20043;-88
2022/07/15 01:54:28;;;;;;;8.15;1.05;;;13.40;99.90;;;;;;5074230;28;20047;-87
2022/07/15 01:56:54;;;;;;;1.88;0.45;;;13.40;99.90;;;;;;5090295;28;20039;-88
2022/07/15 01:59:24;;;;;;;3.83;0.55;;;13.60;99.90;;;;;;5090621;28;20051;-89
2022/07/15 02:01:51;;;;;;;3.92;0.30;;;13.30;99.90;;;;;;5090996;28;20139;-89
2022/07/15 02:04:17;;;;;;;1.90;0.30;;;13.30;99.90;;;;;;5090000;28;20039;-88
2022/07/15 02:06:44;;;;;;;2.45;0.30;;;14.50;99.90;;;;;;5090846;28;20509;-88
2022/07/15 02:09:09;;;;;;;3.67;0.40;;;13.30;99.90;;;;;;5093017;28;20081;-88
2022/07/15 02:11:35;;;;;;;2.88;0.50;;;13.30;99.90;;;;;;5104858;28;20043;-89
2022/07/15 02:14:02;;;;;;;3.95;0.60;;;13.30;99.90;;;;;;5112543;27;20031;-88
2022/07/15 02:16:32;;;;;;;2.25;0.32;;;13.20;99.90;;;;;;5095374;27;20791;-88
2022/07/15 02:18:58;;;;;;;1.15;0.30;;;14.20;99.90;;;;;;5094603;27;20050;-89
2022/07/15 02:21:26;;;;;;;1.90;0.30;;;13.50;99.90;;;;;;5110787;27;20043;-88
2022/07/15 02:23:53;;;;;;;1.85;0.47;;;14.00;99.90;;;;;;5111969;27;20458;-89
2022/07/15 02:26:19;;;;;;;3.58;0.30;;;13.00;99.90;;;;;;5093251;27;20071;-89
2022/07/15 02:28:45;;;;;;;1.60;0.30;;;13.00;99.90;;;;;;5111577;27;20481;-88
2022/07/15 02:31:11;;;;;;;3.97;0.30;;;13.00;99.90;;;;;;5060236;27;20139;-88
2022/07/15 02:33:37;;;;;;;4.57;0.60;;;12.90;99.90;;;;;;5077461;27;20363;-88
2022/07/15 02:36:03;;;;;;;5.47;0.52;;;12.90;99.90;;;;;;5060779;27;20502;-88
2022/07/15 02:38:29;;;;;;;2.72;0.40;;;12.90;99.90;;;;;;5076185;27;20046;-88
2022/07/15 02:40:54;;;;;;;2.58;0.22;;;13.10;99.90;;;;;;5094398;27;20031;-89
2022/07/15 02:43:21;;;;;;;6.40;0.63;;;12.80;99.90;;;;;;5059707;27;20096;-89
2022/07/15 02:45:47;;;;;;;2.60;0.30;;;13.60;99.90;;;;;;5077522;27;20112;-88
2022/07/15 02:48:13;;;;;;;1.17;0.20;;;13.60;99.90;;;;;;5076024;27;20071;-88
2022/07/15 02:50:38;;;;;;;2.50;0.22;;;13.90;99.90;;;;;;5076884;27;20043;-88
2022/07/15 02:53:04;;;;;;;2.63;0.45;;;12.90;99.90;;;;;;5093197;27;20142;-88
2022/07/15 02:55:30;;;;;;;4.00;0.47;;;12.80;99.90;;;;;;5076555;27;20426;-88
2022/07/15 02:57:56;;;;;;;1.75;0.20;;;12.80;99.90;;;;;;5076560;27;20088;-89
2022/07/15 03:00:22;;;;;;;2.95;0.43;;;13.60;99.90;;;;;;5076265;27;20092;-88
2022/07/15 03:02:48;;;;;;;1.17;0.35;;;13.40;99.90;;;;;;5077658;27;20043;-87
2022/07/15 03:05:15;;;;;;;3.72;0.38;;;12.90;99.90;;;;;;5092667;27;20082;-87
2022/07/15 03:07:41;;;;;;;2.67;0.22;;;12.90;99.90;;;;;;5093905;27;20190;-87
2022/07/15 03:10:08;;;;;;;5.57;0.60;;;13.00;99.90;;;;;;5059863;27;20035;-88
2022/07/15 03:12:34;;;;;;;1.40;0.30;;;12.90;99.90;;;;;;5109596;27;20066;-87
2022/07/15 03:15:01;;;;;;;3.05;0.50;;;14.10;99.90;;;;;;5093562;27;20035;-88
2022/07/15 03:17:27;;;;;;;3.30;0.40;;;13.20;99.90;;;;;;5092909;27;20405;-89
2022/07/15 03:19:55;;;;;;;3.72;0.30;;;12.90;99.90;;;;;;5093720;27;20043;-89
2022/07/15 03:22:25;;;;;;;3.70;0.52;;;12.90;99.90;;;;;;5059804;27;20039;-89
2022/07/15 03:24:51;;;;;;;2.10;0.77;;;12.80;99.90;;;;;;5092663;27;20061;-88
2022/07/15 03:27:17;;;;;;;5.38;0.43;;;13.00;99.90;;;;;;5093068;27;20035;-89
2022/07/15 03:29:43;;;;;;;3.42;0.63;;;13.30;99.90;;;;;;5092514;27;20048;-86
2022/07/15 03:32:11;;;;;;;0.90;0.17;;;13.00;99.90;;;;;;5060643;27;20047;-87
2022/07/15 03:34:38;;;;;;;2.05;0.30;;;13.00;99.90;;;;;;5092632;27;20047;-87
2022/07/15 03:37:03;;;;;;;2.28;0.50;;;13.10;99.90;;;;;;5077059;27;20050;-88
2022/07/15 03:39:29;;;;;;;4.05;0.50;;;13.10;99.90;;;;;;5076393;27;20040;-87
2022/07/15 03:41:55;;;;;;;2.10;0.35;;;13.20;99.90;;;;;;5094439;27;20047;-88
2022/07/15 03:44:21;;;;;;;4.28;0.43;;;13.20;99.90;;;;;;5078318;27;20125;-88
2022/07/15 03:46:46;;;;;;;1.88;0.35;;;13.30;99.90;;;;;;5080862;27;20054;-89
2022/07/15 03:49:14;;;;;;;3.75;0.35;;;13.50;99.90;;;;;;5081331;27;20043;-88
2022/07/15 03:51:41;;;;;;;4.00;0.50;;;14.00;99.90;;;;;;5095580;27;20035;-88
2022/07/15 03:54:07;;;;;;;5.10;0.60;;;14.10;99.90;;;;;;5099260;27;20054;-88
2022/07/15 03:56:36;;;;;;;1.67;0.30;;;13.40;99.90;;;;;;5113989;27;20039;-87
2022/07/15 03:59:02;;;;;;;4.80;0.40;;;13.40;99.90;;;;;;5114756;27;20072;-88
2022/07/15 04:01:29;;;;;;;3.45;0.32;;;13.90;99.90;;;;;;5095785;27;20558;-88
2022/07/15 04:03:55;;;;;;;3.05;0.32;;;13.50;99.90;;;;;;5098165;27;20049;-88
2022/07/15 04:06:21;;;;;;;1.77;0.30;;;13.50;99.90;;;;;;5123184;27;20082;-89
2022/07/15 04:08:49;;;;;;;3.75;0.32;;;13.50;99.90;;;;;;5097748;27;20074;-88
2022/07/15 04:11:15;;;;;;;3.08;0.45;;;13.60;99.90;;;;;;5115440;27;20102;-88
2022/07/15 04:13:41;;;;;;;3.22;0.28;;;14.10;99.90;;;;;;5096902;27;20471;-87
2022/07/15 04:16:08;;;;;;;2.60;0.50;;;13.60;99.90;;;;;;5081356;27;20039;-87
2022/07/15 04:18:34;;;;;;;4.50;0.43;;;13.70;99.90;;;;;;5081140;27;20139;-88
2022/07/15 04:21:01;;;;;;;4.10;0.40;;;13.70;99.90;;;;;;5080482;27;20043;-89
2022/07/15 04:23:27;;;;;;;2.78;0.45;;;14.90;99.90;;;;;;5098256;27;20062;-89
2022/07/15 04:25:53;;;;;;;7.00;1.23;;;14.00;99.90;;;;;;5095232;27;20051;-88
2022/07/15 04:28:20;;;;;;;5.07;0.57;;;13.60;99.90;;;;;;5114123;27;20049;-87
2022/07/15 04:30:45;;;;;;;2.38;0.20;;;13.60;99.90;;;;;;5108863;27;20057;-87
2022/07/15 04:33:11;;;;;;;2.35;0.43;;;13.60;99.90;;;;;;5075738;27;20122;-86
2022/07/15 04:35:38;;;;;;;2.40;0.28;;;13.60;99.90;;;;;;5091996;27;20035;-85
2022/07/15 04:38:04;;;;;;;4.85;0.30;;;13.60;99.90;;;;;;5075047;27;20043;-85
2022/07/15 04:40:32;;;;;;;2.72;0.38;;;13.60;99.90;;;;;;5109319;27;20043;-87
2022/07/15 04:42:58;;;;;;;4.15;0.57;;;13.70;99.90;;;;;;5091699;27;20119;-85
2022/07/15 04:45:25;;;;;;;3.97;0.40;;;13.70;99.90;;;;;;5092622;27;20095;-87
2022/07/15 04:47:50;;;;;;;1.77;0.30;;;13.80;99.90;;;;;;5091874;27;20472;-86
2022/07/15 04:53:04;;;;;;;4.25;0.40;;;13.90;99.90;;;;;;5109249;27;20130;-87
2022/07/15 04:55:29;;;;;;;1.00;0.30;;;14.00;99.90;;;;;;5075296;27;20039;-86
2022/07/15 04:57:55;;;;;;;2.40;0.20;;;14.00;99.90;;;;;;5092689;27;20095;-87
2022/07/15 05:00:21;;;;;;;1.65;0.30;;;15.10;99.90;;;;;;5091908;27;20085;-86
2022/07/15 05:02:47;;;;;;;1.35;0.40;;;14.10;99.90;;;;;;5109909;27;20035;-87
2022/07/15 05:05:12;;;;;;;3.63;0.98;;;14.10;99.90;;;;;;5108317;27;20043;-87
2022/07/15 05:07:38;;;;;;;5.47;0.63;;;14.20;99.90;;;;;;5076325;27;20035;-89
2022/07/15 05:10:05;;;;;;;2.17;0.32;;;14.20;99.90;;;;;;5075692;27;20074;-88
2022/07/15 05:12:31;;;;;;;3.78;0.52;;;14.20;99.90;;;;;;5074825;27;20490;-88
2022/07/15 05:14:57;;;;;;;1.55;0.20;;;13.10;99.90;;;;;;5091812;27;20047;-88
2022/07/15 05:17:23;;;;;;;1.88;0.40;;;14.30;99.90;;;;;;5074716;27;20035;-86
2022/07/15 05:19:49;;;;;;;7.97;0.50;;;14.30;99.90;;;;;;5092147;27;20787;-85
2022/07/15 05:22:16;;;;;;;3.63;0.47;;;14.40;99.90;;;;;;5073394;27;20036;-86
2022/07/15 05:24:41;;;;;;;5.25;0.60;;;14.50;99.90;;;;;;5058981;27;20061;-88
2022/07/15 05:27:07;;;;;;;3.42;0.40;;;14.70;99.90;;;;;;5057365;27;20577;-86
2022/07/15 05:29:33;;;;;;;2.17;0.60;;;14.60;99.90;;;;;;5073148;27;20115;-85
2022/07/15 05:31:58;;;;;;;2.47;0.20;;;14.60;99.90;;;;;;5073783;27;20058;-85
2022/07/15 05:34:24;;;;;;;4.32;0.43;;;14.80;99.90;;;;;;5090024;27;20074;-84
2022/07/15 05:36:50;;;;;;;1.80;0.40;;;14.70;99.90;;;;;;5074430;27;20154;-85
2022/07/15 05:39:15;;;;;;;3.28;0.28;;;14.70;99.90;;;;;;5089726;28;20134;-85
2022/07/15 05:41:41;;;;;;;1.80;0.28;;;14.80;99.90;;;;;;5057136;27;20040;-85
2022/07/15 05:44:07;;;;;;;1.35;0.30;;;14.80;99.90;;;;;;5090582;28;20039;-84
2022/07/15 05:46:33;;;;;;;1.98;0.40;;;15.00;99.90;;;;;;5125295;27;20055;-88
2022/07/15 05:48:59;;;;;;;4.05;0.60;;;15.00;99.90;;;;;;5074236;28;20507;-88
2022/07/15 05:51:25;;;;;;;4.47;0.40;;;15.10;99.90;;;;;;5078207;28;20183;-89
2022/07/15 05:53:50;;;;;;;1.35;0.22;;;15.10;99.90;;;;;;5062951;28;20039;-87
2022/07/15 05:56:19;;;;;;;0.80;0.50;;;15.20;99.90;;;;;;5094037;28;20134;-87
2022/07/15 05:58:45;;;;;;;4.30;0.40;;;15.30;99.90;;;;;;5098906;28;20142;-86
2022/07/15 06:01:11;;;;;;;3.20;0.50;;;15.60;99.90;;;;;;5113285;28;20035;-88
2022/07/15 06:03:36;;;;;;;3.25;0.38;;;15.20;99.90;;;;;;5058443;28;20043;-86
2022/07/15 06:06:04;;;;;;;0.52;0.30;;;15.20;99.90;;;;;;5091813;28;20039;-85
2022/07/15 06:08:30;;;;;;;2.17;0.20;;;15.20;99.90;;;;;;5090704;28;20434;-85
2022/07/15 06:10:56;;;;;;;1.98;0.50;;;15.30;99.90;;;;;;5108027;28;20078;-86
2022/07/15 06:13:22;;;;;;;2.65;0.20;;;15.40;99.90;;;;;;5106519;28;20047;-83
2022/07/15 06:15:48;;;;;;;1.60;0.20;;;15.20;99.90;;;;;;5107446;28;20054;-85
2022/07/15 06:18:14;;;;;;;2.95;0.32;;;15.10;99.90;;;;;;5106637;28;20067;-86
2022/07/15 06:20:39;;;;;;;2.60;0.30;;;15.00;99.90;;;;;;5089710;28;20134;-84
2022/07/15 06:23:05;;;;;;;1.55;0.38;;;14.90;99.90;;;;;;5107873;28;20046;-84
2022/07/15 06:25:31;;;;;;;2.05;0.30;;;14.80;99.90;;;;;;5072427;28;20046;-85
2022/07/15 06:27:57;;;;;;;4.47;0.65;;;14.80;99.90;;;;;;5090698;28;20075;-86
2022/07/15 06:30:23;;;;;;;1.63;0.30;;;14.80;99.90;;;;;;5072312;28;20056;-85
2022/07/15 06:32:48;;;;;;;4.10;0.38;;;14.90;99.90;;;;;;5090812;28;20043;-86
2022/07/15 06:35:14;;;;;;;6.68;0.70;;;15.00;99.90;;;;;;5106574;28;20494;-87
2022/07/15 06:37:40;;;;;;;2.30;0.52;;;15.20;99.90;;;;;;5073715;28;20039;-86
2022/07/15 06:40:10;;;;;;;2.03;0.30;;;15.30;99.90;;;;;;5073258;28;20458;-85
2022/07/15 06:42:37;;;;;;;2.28;0.30;;;15.30;99.90;;;;;;5089451;28;20039;-85
2022/07/15 06:45:03;;;;;;;3.13;0.50;;;15.10;99.90;;;;;;5090417;28;20517;-84
2022/07/15 06:47:29;;;;;;;3.95;0.30;;;15.10;99.90;;;;;;5089447;28;20044;-86
2022/07/15 06:49:55;;;;;;;3.22;0.40;;;15.10;99.90;;;;;;5090736;28;20062;-86
2022/07/15 06:52:20;;;;;;;4.15;0.63;;;15.20;99.90;;;;;;5056405;28;20050;-86
2022/07/15 06:54:46;;;;;;;0.65;0.20;;;15.10;99.90;;;;;;5089814;28;20390;-87
2022/07/15 06:57:16;;;;;;;2.05;0.20;;;15.10;99.90;;;;;;5073766;28;20078;-86
2022/07/15 06:59:43;;;;;;;0.90;0.10;;;15.10;99.90;;;;;;5090546;27;20043;-86
2022/07/15 07:02:08;;;;;;;0.30;0.13;;;15.10;99.90;;;;;;5093472;27;20078;-86
2022/07/15 07:04:34;;;;;;;2.38;0.32;;;16.10;99.90;;;;;;5076511;27;20047;-87
2022/07/15 07:07:00;;;;;;;1.52;0.20;;;15.20;99.90;;;;;;5110889;27;20035;-87
2022/07/15 07:09:26;;;;;;;2.00;0.35;;;15.70;99.90;;;;;;5093211;27;20043;-86
2022/07/15 07:11:52;;;;;;;3.97;0.30;;;15.50;99.90;;;;;;5093923;27;20032;-87
2022/07/15 07:14:18;;;;;;;1.70;0.30;;;15.70;99.90;;;;;;5092850;27;20050;-88
2022/07/15 07:16:44;;;;;;;2.03;0.32;;;15.70;99.90;;;;;;5092660;27;20329;-87
2022/07/15 07:19:09;;;;;;;1.55;0.25;;;15.80;99.90;;;;;;5076788;27;20093;-87
2022/07/15 07:21:35;;;;;;;7.82;0.50;;;16.30;99.90;;;;;;5092920;27;20070;-87
2022/07/15 07:24:01;;;;;;;2.33;0.28;;;15.90;99.90;;;;;;5093734;27;20044;-87
2022/07/15 07:26:26;;;;;;;6.75;0.40;;;15.90;99.90;;;;;;5109411;27;20042;-87
2022/07/15 07:28:52;;;;;;;2.05;0.50;;;16.00;99.90;;;;;;5076360;27;20135;-87
2022/07/15 07:31:22;;;;;;;1.70;0.25;;;16.10;99.90;;;;;;5092984;27;20122;-87
2022/07/15 07:33:48;;;;;;;5.03;0.30;;;16.40;99.90;;;;;;5079119;27;20047;-87
2022/07/15 07:36:15;;;;;;;8.00;0.60;;;16.30;99.90;;;;;;5079195;27;20381;-86
2022/07/15 07:38:41;;;;;;;3.08;0.40;;;16.60;99.90;;;;;;5078102;27;20558;-86
2022/07/15 07:41:07;;;;;;;2.25;0.40;;;17.40;99.90;;;;;;5079320;27;20031;-86
2022/07/15 07:43:34;;;;;;;1.75;0.25;;;16.80;99.90;;;;;;5111240;27;20351;-86
2022/07/15 07:46:01;;;;;;;1.05;0.20;;;17.30;99.90;;;;;;5094432;27;20122;-87
2022/07/15 07:48:27;;;;;;;0.75;0.20;;;16.80;99.90;;;;;;5094645;27;20143;-87
2022/07/15 07:50:53;;;;;;;0.73;0.20;;;16.70;99.90;;;;;;5114181;27;20661;-92
2022/07/15 07:53:18;;;;;;;1.25;0.63;;;16.70;99.90;;;;;;5072106;27;20058;-89
2022/07/15 07:55:44;;;;;;;4.93;0.32;;;16.80;99.90;;;;;;5072737;27;20047;-90
2022/07/15 07:58:11;;;;;;;2.33;0.30;;;16.90;99.90;;;;;;5080726;27;20039;-89
2022/07/15 08:00:37;;;;;;;4.93;0.85;;;17.00;99.90;;;;;;5062585;27;20043;-89
2022/07/15 08:03:03;;;;;;;2.63;0.20;;;17.20;99.90;;;;;;5096591;27;20054;-90
2022/07/15 08:05:29;;;;;;;1.30;0.10;;;17.20;99.90;;;;;;5095788;27;20050;-91
2022/07/15 08:08:15;;;;;;;4.63;0.40;;;17.30;99.90;;;;;;5079847;27;20039;-91
2022/07/15 08:10:43;;;;;;;1.48;0.13;;;17.30;99.90;;;;;;5097009;27;20054;-92
2022/07/15 08:13:08;;;;;;;1.00;0.13;;;17.50;99.90;;;;;;5080889;27;20058;-91
2022/07/15 08:15:35;;;;;;;0.63;0.10;;;17.60;99.90;;;;;;5066177;27;20035;-90
2022/07/15 08:18:01;;;;;;;1.23;0.30;;;18.50;99.90;;;;;;5083545;27;20046;-91
2022/07/15 08:20:31;;;;;;;3.17;0.20;;;17.80;99.90;;;;;;5084627;27;20050;-88
2022/07/15 08:22:58;;;;;;;1.20;0.20;;;18.00;99.90;;;;;;5083101;27;20043;-92
2022/07/15 08:25:32;;;;;;;0.70;0.55;;;17.90;99.90;;;;;;5098265;27;20043;-86
2022/07/15 08:27:59;;;;;;;0.50;0.17;;;17.70;99.90;;;;;;5110871;27;20043;-86
2022/07/15 08:30:29;;;;;;;0.25;0.10;;;17.50;99.90;;;;;;5094040;27;20410;-85
2022/07/15 08:32:56;;;;;;;0.17;0.10;;;17.40;99.90;;;;;;5129858;27;20082;-84
2022/07/15 08:35:24;;;;;;;0.57;0.08;;;16.50;99.90;;;;;;5109747;27;20047;-86
2022/07/15 08:37:50;;;;;;;1.17;0.30;;;17.30;99.90;;;;;;5093439;27;20050;-85
2022/07/15 08:40:16;;;;;;;0.73;0.10;;;17.40;99.90;;;;;;5094449;27;20474;-87
2022/07/15 08:42:45;;;;;;;1.08;0.10;;;17.40;99.90;;;;;;5094313;27;20393;-86
2022/07/15 08:45:12;;;;;;;0.55;0.13;;;17.60;99.90;;;;;;5094958;27;20062;-86
2022/07/15 08:47:41;;;;;;;0.30;0.20;;;17.70;99.90;;;;;;5077586;27;20078;-86
2022/07/15 08:50:11;;;;;;;0.43;0.00;;;17.80;99.90;;;;;;5110635;27;20046;-85
2022/07/15 08:52:38;;;;;;;0.43;0.17;;;17.90;99.90;;;;;;5092760;27;20398;-84
2022/07/15 08:55:05;;;;;;;1.35;0.10;;;17.80;99.90;;;;;;5091968;27;20039;-84
2022/07/15 08:57:31;;;;;;;2.45;0.25;;;17.80;99.90;;;;;;5109851;27;20043;-82
2022/07/15 08:59:57;;;;;;;1.10;0.22;;;17.70;99.90;;;;;;5110129;27;20547;-85
2022/07/15 09:02:23;;;;;;;1.98;0.35;;;17.70;99.90;;;;;;5094289;27;20051;-85
2022/07/15 09:05:29;;;;;;;1.15;0.30;;;17.70;99.90;;;;;;5093719;27;20043;-86
2022/07/15 09:08:03;;;;;;;4.20;0.17;;;17.70;99.90;;;;;;5094445;27;20043;-85
2022/07/15 09:10:42;;;;;;;2.05;0.63;;;18.00;99.90;;;;;;5096278;27;20039;-89
2022/07/15 09:13:08;;;;;;;1.83;0.43;;;18.50;99.90;;;;;;5095618;27;20494;-88
2022/07/15 09:15:36;;;;;;;0.80;0.20;;;18.80;99.90;;;;;;5080578;27;20130;-88
2022/07/15 09:18:23;;;;;;;1.00;0.20;;;18.90;99.90;;;;;;5093013;27;20042;-88
2022/07/15 09:20:49;;;;;;;2.15;0.25;;;18.90;99.90;;;;;;5091209;27;20758;-88
2022/07/15 09:23:20;;;;;;;1.65;0.20;;;18.80;99.90;;;;;;5091257;27;20177;-87
2022/07/15 09:25:49;;;;;;;0.50;0.00;;;18.70;99.90;;;;;;5091907;28;20398;-87
2022/07/15 09:28:15;;;;;;;3.80;0.13;;;18.60;99.90;;;;;;5093837;27;20046;-87
2022/07/15 09:33:40;;;;;;;2.72;0.28;;;18.60;99.90;;;;;;5111533;27;20043;-86
2022/07/15 09:36:20;;;;;;;0.70;0.10;;;19.00;99.90;;;;;;5092395;28;20042;-86
2022/07/15 09:39:05;;;;;;;0.75;0.13;;;18.70;99.90;;;;;;5090668;28;20094;-85
2022/07/15 09:41:35;;;;;;;2.03;0.20;;;18.80;99.90;;;;;;5107592;27;20047;-86
2022/07/15 09:44:15;;;;;;;6.20;0.30;;;18.70;99.90;;;;;;5091423;28;20137;-85
2022/07/15 09:46:49;;;;;;;1.58;0.25;;;18.80;99.90;;;;;;5108136;28;20074;-85
2022/07/15 09:49:38;;;;;;;2.17;0.40;;;18.90;99.90;;;;;;5102872;28;20061;-86
2022/07/15 09:52:07;;;;;;;1.85;0.15;;;19.00;99.90;;;;;;5095874;28;20031;-86
2022/07/15 09:54:38;;;;;;;0.77;0.20;;;19.10;99.90;;;;;;5091251;28;20036;-87
2022/07/15 09:57:11;;;;;;;1.67;0.10;;;19.20;99.90;;;;;;5091175;28;20051;-87
2022/07/15 09:59:37;;;;;;;;;;;19.30;99.90;;;;;;5091108;28;20035;-86
2022/07/15 10:02:03;;;;;;;0.30;0.10;;;19.30;99.90;;;;;;5107921;28;20281;-86
2022/07/15 10:04:30;;;;;;;1.77;0.22;;;19.30;99.90;;;;;;5107469;28;20518;-86
2022/07/15 10:06:59;;;;;;;1.80;0.22;;;19.30;99.90;;;;;;5090583;28;20521;-92
2022/07/15 10:09:29;;;;;;;0.70;0.13;;;19.50;99.90;;;;;;5091582;28;20043;-89
2022/07/15 10:11:57;;;;;;;1.20;0.10;;;19.50;99.90;;;;;;5090485;28;20057;-90
2022/07/15 10:14:54;;;;;;;0.82;0.20;;;19.50;99.90;;;;;;5091106;28;20082;-90
2022/07/15 10:17:44;;;;;;;0.98;0.17;;;19.40;99.90;;;;;;5090448;28;20039;-90
2022/07/15 10:20:35;;;;;;;3.42;0.60;;;19.50;99.90;;;;;;5090990;28;20050;-88
2022/07/15 10:23:31;;;;;;;4.85;0.30;;;19.60;99.90;;;;;;5091222;28;20065;-88
2022/07/15 10:26:08;;;;;;;4.00;0.30;;;19.80;99.90;;;;;;5091364;28;20054;-91
2022/07/15 10:28:52;;;;;;;1.08;0.20;;;20.00;99.90;;;;;;5108482;28;20043;-89
2022/07/15 10:31:21;;;;;;;0.52;0.17;;;20.10;99.90;;;;;;5091361;28;20051;-89
2022/07/15 10:34:02;;;;;;;1.00;0.17;;;20.30;99.90;;;;;;5091683;27;20481;-87
2022/07/15 10:36:53;;;;;;;2.58;0.10;;;20.40;99.90;;;;;;5111921;27;20067;-88
2022/07/15 10:39:24;;;;;;;1.10;0.30;;;20.20;99.90;;;;;;5096346;27;20061;-87
2022/07/15 10:41:57;;;;;;;1.60;0.15;;;20.00;99.90;;;;;;5111971;27;20126;-86
2022/07/15 10:44:26;;;;;;;1.40;0.15;;;19.70;99.90;;;;;;5129952;27;20506;-88
2022/07/15 10:47:13;;;;;;;0.75;0.20;;;19.60;99.90;;;;;;5094264;27;20043;-86
2022/07/15 10:49:41;;;;;;;1.10;0.20;;;19.40;99.90;;;;;;5094241;27;20095;-87
2022/07/15 10:52:16;;;;;;;1.80;0.08;;;19.10;99.90;;;;;;5077844;27;20088;-88
2022/07/15 10:54:43;;;;;;;1.58;0.20;;;19.00;99.90;;;;;;5094863;27;20131;-88
2022/07/15 10:57:10;;;;;;;1.45;0.20;;;18.80;99.90;;;;;;5094602;27;20121;-86
2022/07/15 10:59:41;;;;;;;1.88;0.20;;;18.80;99.90;;;;;;5129212;27;20039;-85
2022/07/15 11:02:06;;;;;;;3.67;0.20;;;18.70;99.90;;;;;;5095200;27;20405;-86
2022/07/15 11:04:33;;;;;;;0.55;0.10;;;18.70;99.90;;;;;;5111799;27;20113;-86
2022/07/15 11:07:09;;;;;;;2.05;0.20;;;18.80;99.90;;;;;;5079680;27;20416;-86
2022/07/15 11:09:57;;;;;;;3.63;0.10;;;18.80;99.90;;;;;;5097236;27;20501;-86
2022/07/15 11:12:30;;;;;;;4.05;0.10;;;18.80;99.90;;;;;;5095873;27;20079;-85
2022/07/15 11:15:09;;;;;;;1.42;0.10;;;18.90;99.90;;;;;;5114278;27;20069;-86
2022/07/15 11:17:34;;;;;;;0.95;0.15;;;18.90;99.90;;;;;;5080184;27;20041;-86
2022/07/15 11:20:08;;;;;;;1.27;0.10;;;18.90;99.90;;;;;;5095445;27;20078;-86
2022/07/15 11:22:39;;;;;;;2.13;0.10;;;19.00;99.90;;;;;;5094548;27;20047;-85
2022/07/15 11:25:06;;;;;;;2.38;0.10;;;19.20;99.90;;;;;;5094153;27;20043;-86
2022/07/15 11:27:32;;;;;;;0.82;0.10;;;19.30;99.90;;;;;;5094036;27;20486;-86
2022/07/15 11:30:03;;;;;;;1.27;0.20;;;19.40;99.90;;;;;;5093970;27;20047;-86
2022/07/15 11:32:32;;;;;;;2.53;0.20;;;19.60;99.90;;;;;;5111106;27;20046;-86
2022/07/15 11:35:00;;;;;;;0.40;0.13;;;19.70;99.90;;;;;;5093695;27;20394;-86
2022/07/15 11:37:35;;;;;;;0.80;0.20;;;19.80;99.90;;;;;;5094898;27;20050;-87
2022/07/15 11:45:52;;;;;;;1.83;0.20;;;20.00;99.90;;;;;;5133011;27;20044;-87
2022/07/15 11:48:18;;;;;;;0.08;0.05;;;20.10;99.90;;;;;;5060816;27;20039;-90
2022/07/15 11:50:55;;;;;;;2.28;0.20;;;20.10;99.90;;;;;;5077478;27;20043;-88
2022/07/15 11:53:22;;;;;;;2.13;0.20;;;20.10;99.90;;;;;;5094010;27;20039;-89
2022/07/15 11:55:56;;;;;;;1.05;0.20;;;20.10;99.90;;;;;;5094418;27;20092;-87
2022/07/15 11:58:29;;;;;;;1.98;0.28;;;20.30;99.90;;;;;;5094662;27;20672;-88
2022/07/15 12:00:56;;;;;;;0.47;0.15;;;20.50;99.90;;;;;;5094108;27;20490;-88
2022/07/15 12:03:21;;;;;;;1.23;0.30;;;20.50;99.90;;;;;;5093997;27;20482;-89
2022/07/15 12:06:07;;;;;;;2.50;0.20;;;20.50;99.90;;;;;;5061423;27;20039;-89
2022/07/15 12:08:41;;;;;;;2.42;0.40;;;20.50;99.70;;;;;;5111609;27;20434;-87
2022/07/15 12:11:33;;;;;;;2.05;0.30;;;20.30;99.90;;;;;;5093933;27;20047;-89
2022/07/15 12:14:02;;;;;;;3.63;0.15;;;20.20;99.90;;;;;;5081180;27;20038;-89
2022/07/15 12:16:45;;;;;;;2.25;0.32;;;20.20;99.90;;;;;;5094963;27;20060;-88
2022/07/15 12:19:23;;;;;;;2.33;0.28;;;20.10;99.90;;;;;;5095362;27;20050;-91
2022/07/15 12:21:53;;;;;;;1.02;0.25;;;20.50;99.90;;;;;;5093618;27;20463;-86
2022/07/15 12:24:21;;;;;;;1.45;0.50;;;19.90;99.90;;;;;;5110196;27;20397;-87
2022/07/15 12:26:50;;;;;;;4.85;0.43;;;19.80;99.90;;;;;;5094074;27;20501;-85
2022/07/15 12:29:18;;;;;;;2.50;0.52;;;19.60;99.90;;;;;;5109640;27;20050;-86
2022/07/15 12:31:54;;;;;;;1.20;0.30;;;19.50;99.90;;;;;;5075444;27;20482;-86
2022/07/15 12:34:21;;;;;;;8.23;0.50;;;19.50;99.90;;;;;;5108716;27;20493;-85
2022/07/15 12:36:55;;;;;;;2.28;0.17;;;19.40;99.90;;;;;;5075034;27;20130;-84
2022/07/15 12:39:22;;;;;;;0.73;0.10;;;19.40;99.90;;;;;;5109623;27;20046;-88
2022/07/15 12:42:02;;;;;;;4.82;0.40;;;19.30;99.90;;;;;;5075736;27;20080;-86
2022/07/15 12:44:30;;;;;;;2.33;0.40;;;19.30;99.90;;;;;;5109036;27;20115;-87
2022/07/15 12:47:03;;;;;;;2.60;0.30;;;19.30;99.90;;;;;;5074382;27;20046;-86
2022/07/15 12:49:51;;;;;;;2.83;0.50;;;19.20;99.90;;;;;;5108462;27;20047;-87
2022/07/15 12:52:35;;;;;;;1.35;0.35;;;19.10;99.90;;;;;;5074558;27;20054;-86
2022/07/15 12:55:16;;;;;;;3.83;0.40;;;19.10;99.90;;;;;;5091240;27;20057;-86
2022/07/15 12:57:43;;;;;;;0.82;0.20;;;19.00;99.90;;;;;;5091101;27;20035;-85
2022/07/15 13:00:21;;;;;;;2.42;0.35;;;19.00;99.90;;;;;;5074170;27;20080;-86
2022/07/15 13:03:08;;;;;;;0.73;0.10;;;19.00;99.90;;;;;;5090712;27;20130;-85
2022/07/15 13:05:40;;;;;;;1.55;0.28;;;19.10;99.90;;;;;;5091215;27;20459;-87
2022/07/15 13:08:14;;;;;;;3.17;0.30;;;19.20;99.90;;;;;;5090951;27;20472;-86